sensor_id;sensor_type;location;lat;lon;timestamp;pressure;altitude;pressure_sealevel;temperature;humidity
74915;BME280;63475;45.140;-75.616;2023-11-21T00:00:14;102477.81;;;-3.61;64.88
74915;BME280;63475;45.140;-75.616;2023-11-21T00:02:17;102485.66;;;-3.61;64.06
74915;BME280;63475;45.140;-75.616;2023-11-21T00:04:20;102477.72;;;-3.66;63.67
74915;BME280;63475;45.140;-75.616;2023-11-21T00:06:23;102486.38;;;-3.68;64.01
74915;BME280;63475;45.140;-75.616;2023-11-21T00:08:26;102482.81;;;-3.73;64.13
74915;BME280;63475;45.140;-75.616;2023-11-21T00:10:29;102479.28;;;-3.75;65.65
74915;BME280;63475;45.140;-75.616;2023-11-21T00:12:32;102489.72;;;-3.77;65.30
74915;BME280;63475;45.140;-75.616;2023-11-21T00:14:38;102501.81;;;-3.80;65.28
74915;BME280;63475;45.140;-75.616;2023-11-21T00:16:41;102499.16;;;-3.83;65.48
74915;BME280;63475;45.140;-75.616;2023-11-21T00:18:44;102496.50;;;-3.85;65.51
74915;BME280;63475;45.140;-75.616;2023-11-21T00:20:48;102506.81;;;-3.91;65.95
74915;BME280;63475;45.140;-75.616;2023-11-21T00:22:51;102501.53;;;-3.94;66.36
74915;BME280;63475;45.140;-75.616;2023-11-21T00:24:53;102505.84;;;-3.96;66.05
74915;BME280;63475;45.140;-75.616;2023-11-21T00:26:56;102505.81;;;-3.99;65.75
74915;BME280;63475;45.140;-75.616;2023-11-21T00:28:58;102506.69;;;-3.97;65.18
74915;BME280;63475;45.140;-75.616;2023-11-21T00:31:02;102507.50;;;-4.01;64.83
74915;BME280;63475;45.140;-75.616;2023-11-21T00:33:04;102508.31;;;-4.04;65.48
74915;BME280;63475;45.140;-75.616;2023-11-21T00:35:08;102517.88;;;-4.04;65.39
74915;BME280;63475;45.140;-75.616;2023-11-21T00:37:10;102507.31;;;-4.10;65.16
74915;BME280;63475;45.140;-75.616;2023-11-21T00:39:13;102510.75;;;-4.13;65.95
74915;BME280;63475;45.140;-75.616;2023-11-21T00:41:16;102510.75;;;-4.13;65.65
74915;BME280;63475;45.140;-75.616;2023-11-21T00:43:19;102505.44;;;-4.17;66.48
74915;BME280;63475;45.140;-75.616;2023-11-21T00:45:22;102505.44;;;-4.17;66.06
74915;BME280;63475;45.140;-75.616;2023-11-21T00:47:25;102507.16;;;-4.18;64.62
74915;BME280;63475;45.140;-75.616;2023-11-21T00:49:27;102500.13;;;-4.23;64.67
74915;BME280;63475;45.140;-75.616;2023-11-21T00:51:30;102502.59;;;-4.30;64.97
74915;BME280;63475;45.140;-75.616;2023-11-21T00:53:33;102506.88;;;-4.32;65.33
74915;BME280;63475;45.140;-75.616;2023-11-21T00:55:36;102499.81;;;-4.37;65.47
74915;BME280;63475;45.140;-75.616;2023-11-21T00:57:39;102502.31;;;-4.42;65.46
74915;BME280;63475;45.140;-75.616;2023-11-21T00:59:42;102497.88;;;-4.47;65.00
74915;BME280;63475;45.140;-75.616;2023-11-21T01:01:44;102501.16;;;-4.56;65.05
74915;BME280;63475;45.140;-75.616;2023-11-21T01:03:47;102493.28;;;-4.59;66.16
74915;BME280;63475;45.140;-75.616;2023-11-21T01:05:49;102494.09;;;-4.62;66.51
74915;BME280;63475;45.140;-75.616;2023-11-21T01:07:52;102501.78;;;-4.66;66.34
74915;BME280;63475;45.140;-75.616;2023-11-21T01:09:55;102502.59;;;-4.70;66.72
74915;BME280;63475;45.140;-75.616;2023-11-21T01:11:58;102509.56;;;-4.69;67.21
74915;BME280;63475;45.140;-75.616;2023-11-21T01:14:02;102506.94;;;-4.71;66.83
74915;BME280;63475;45.140;-75.616;2023-11-21T01:16:06;102504.25;;;-4.74;67.39
74915;BME280;63475;45.140;-75.616;2023-11-21T01:18:09;102505.03;;;-4.78;67.21
74915;BME280;63475;45.140;-75.616;2023-11-21T01:20:11;102503.19;;;-4.82;67.65
74915;BME280;63475;45.140;-75.616;2023-11-21T01:22:15;102499.66;;;-4.84;67.02
74915;BME280;63475;45.140;-75.616;2023-11-21T01:24:18;102497.88;;;-4.86;68.04
74915;BME280;63475;45.140;-75.616;2023-11-21T01:26:21;102490.78;;;-4.93;67.43
74915;BME280;63475;45.140;-75.616;2023-11-21T01:28:24;102492.47;;;-4.96;68.27
74915;BME280;63475;45.140;-75.616;2023-11-21T01:30:26;102497.75;;;-4.92;67.67
74915;BME280;63475;45.140;-75.616;2023-11-21T01:32:29;102502.06;;;-4.95;68.10
74915;BME280;63475;45.140;-75.616;2023-11-21T01:34:31;102501.97;;;-4.98;67.73
74915;BME280;63475;45.140;-75.616;2023-11-21T01:36:34;102498.44;;;-5.00;68.10
74915;BME280;63475;45.140;-75.616;2023-11-21T01:38:37;102503.59;;;-5.03;68.00
74915;BME280;63475;45.140;-75.616;2023-11-21T01:40:40;102500.94;;;-5.04;68.12
74915;BME280;63475;45.140;-75.616;2023-11-21T01:42:43;102503.47;;;-5.07;67.62
74915;BME280;63475;45.140;-75.616;2023-11-21T01:44:45;102502.50;;;-5.12;67.67
74915;BME280;63475;45.140;-75.616;2023-11-21T01:46:49;102502.31;;;-5.20;68.17
74915;BME280;63475;45.140;-75.616;2023-11-21T01:48:52;102499.66;;;-5.21;68.22
74915;BME280;63475;45.140;-75.616;2023-11-21T01:50:56;102497.00;;;-5.24;68.98
74915;BME280;63475;45.140;-75.616;2023-11-21T01:53:00;102509.97;;;-5.26;68.40
74915;BME280;63475;45.140;-75.616;2023-11-21T01:55:05;102497.72;;;-5.30;69.36
74915;BME280;63475;45.140;-75.616;2023-11-21T01:57:09;102502.91;;;-5.30;68.65
74915;BME280;63475;45.140;-75.616;2023-11-21T01:59:12;102500.28;;;-5.32;69.93
74915;BME280;63475;45.140;-75.616;2023-11-21T02:01:16;102506.34;;;-5.31;69.17
74915;BME280;63475;45.140;-75.616;2023-11-21T02:03:20;102507.16;;;-5.34;68.61
74915;BME280;63475;45.140;-75.616;2023-11-21T02:05:23;102508.03;;;-5.33;69.04
74915;BME280;63475;45.140;-75.616;2023-11-21T02:07:27;102500.16;;;-5.38;69.06
74915;BME280;63475;45.140;-75.616;2023-11-21T02:09:30;102511.34;;;-5.40;68.39
74915;BME280;63475;45.140;-75.616;2023-11-21T02:11:33;102509.50;;;-5.44;69.41
74915;BME280;63475;45.140;-75.616;2023-11-21T02:13:37;102508.59;;;-5.46;68.91
74915;BME280;63475;45.140;-75.616;2023-11-21T02:15:39;102508.44;;;-5.52;69.61
74915;BME280;63475;45.140;-75.616;2023-11-21T02:17:43;102503.97;;;-5.56;69.03
74915;BME280;63475;45.140;-75.616;2023-11-21T02:19:46;102504.81;;;-5.59;69.75
74915;BME280;63475;45.140;-75.616;2023-11-21T02:21:53;102509.13;;;-5.59;69.90
74915;BME280;63475;45.140;-75.616;2023-11-21T02:23:55;102509.84;;;-5.65;68.60
74915;BME280;63475;45.140;-75.616;2023-11-21T02:25:58;102505.31;;;-5.72;69.38
74915;BME280;63475;45.140;-75.616;2023-11-21T02:28:02;102505.28;;;-5.74;68.59
74915;BME280;63475;45.140;-75.616;2023-11-21T02:30:05;102497.44;;;-5.75;69.44
74915;BME280;63475;45.140;-75.616;2023-11-21T02:32:10;102498.31;;;-5.75;70.38
74915;BME280;63475;45.140;-75.616;2023-11-21T02:34:15;102509.56;;;-5.76;70.04
74915;BME280;63475;45.140;-75.616;2023-11-21T02:36:18;102505.16;;;-5.78;69.76
74915;BME280;63475;45.140;-75.616;2023-11-21T02:38:23;102513.00;;;-5.77;69.89
74915;BME280;63475;45.140;-75.616;2023-11-21T02:40:26;102508.66;;;-5.76;69.34
74915;BME280;63475;45.140;-75.616;2023-11-21T02:42:29;102507.75;;;-5.78;69.95
74915;BME280;63475;45.140;-75.616;2023-11-21T02:44:32;102514.66;;;-5.79;70.03
74915;BME280;63475;45.140;-75.616;2023-11-21T02:46:36;102511.09;;;-5.84;70.13
74915;BME280;63475;45.140;-75.616;2023-11-21T02:48:39;102510.16;;;-5.86;70.29
74915;BME280;63475;45.140;-75.616;2023-11-21T02:50:42;102517.03;;;-5.88;69.98
74915;BME280;63475;45.140;-75.616;2023-11-21T02:52:45;102519.53;;;-5.91;70.02
74915;BME280;63475;45.140;-75.616;2023-11-21T02:54:48;102509.81;;;-5.98;70.14
74915;BME280;63475;45.140;-75.616;2023-11-21T02:56:50;102507.13;;;-6.03;69.53
74915;BME280;63475;45.140;-75.616;2023-11-21T02:58:55;102499.19;;;-6.07;70.31
74915;BME280;63475;45.140;-75.616;2023-11-21T03:00:58;102495.63;;;-6.11;69.27
74915;BME280;63475;45.140;-75.616;2023-11-21T03:03:01;102506.06;;;-6.09;70.35
74915;BME280;63475;45.140;-75.616;2023-11-21T03:05:04;102509.50;;;-6.10;70.17
74915;BME280;63475;45.140;-75.616;2023-11-21T03:07:07;102513.94;;;-6.06;70.05
74915;BME280;63475;45.140;-75.616;2023-11-21T03:09:09;102516.44;;;-6.09;70.50
74915;BME280;63475;45.140;-75.616;2023-11-21T03:11:14;102518.13;;;-6.11;70.70
74915;BME280;63475;45.140;-75.616;2023-11-21T03:13:16;102518.88;;;-6.15;71.02
74915;BME280;63475;45.140;-75.616;2023-11-21T03:15:19;102524.84;;;-6.18;70.59
74915;BME280;63475;45.140;-75.616;2023-11-21T03:17:21;102529.97;;;-6.21;70.21
74915;BME280;63475;45.140;-75.616;2023-11-21T03:19:24;102528.16;;;-6.23;70.43
74915;BME280;63475;45.140;-75.616;2023-11-21T03:21:26;102528.09;;;-6.26;71.35
74915;BME280;63475;45.140;-75.616;2023-11-21T03:23:29;102519.28;;;-6.32;70.60
74915;BME280;63475;45.140;-75.616;2023-11-21T03:25:31;102518.41;;;-6.32;70.87
74915;BME280;63475;45.140;-75.616;2023-11-21T03:27:34;102519.19;;;-6.35;71.22
74915;BME280;63475;45.140;-75.616;2023-11-21T03:29:37;102513.91;;;-6.38;71.09
74915;BME280;63475;45.140;-75.616;2023-11-21T03:31:40;102505.94;;;-6.44;71.09
74915;BME280;63475;45.140;-75.616;2023-11-21T03:33:45;102504.25;;;-6.42;71.86
74915;BME280;63475;45.140;-75.616;2023-11-21T03:35:49;102506.72;;;-6.46;71.80
74915;BME280;63475;45.140;-75.616;2023-11-21T03:37:52;102511.06;;;-6.45;71.83
74915;BME280;63475;45.140;-75.616;2023-11-21T03:39:57;102498.03;;;-6.48;71.93
74915;BME280;63475;45.140;-75.616;2023-11-21T03:42:00;102492.69;;;-6.53;71.27
74915;BME280;63475;45.140;-75.616;2023-11-21T03:44:03;102489.28;;;-6.52;72.14
74915;BME280;63475;45.140;-75.616;2023-11-21T03:46:05;102483.06;;;-6.57;71.86
74915;BME280;63475;45.140;-75.616;2023-11-21T03:48:09;102475.28;;;-6.57;71.63
74915;BME280;63475;45.140;-75.616;2023-11-21T03:50:14;102464.91;;;-6.57;72.32
74915;BME280;63475;45.140;-75.616;2023-11-21T03:52:17;102466.56;;;-6.59;72.52
74915;BME280;63475;45.140;-75.616;2023-11-21T03:54:19;102463.09;;;-6.59;72.82
74915;BME280;63475;45.140;-75.616;2023-11-21T03:56:22;102458.69;;;-6.62;72.98
74915;BME280;63475;45.140;-75.616;2023-11-21T03:58:24;102459.56;;;-6.61;72.88
74915;BME280;63475;45.140;-75.616;2023-11-21T04:00:28;102456.00;;;-6.65;72.46
74915;BME280;63475;45.140;-75.616;2023-11-21T04:02:30;102457.72;;;-6.66;73.12
74915;BME280;63475;45.140;-75.616;2023-11-21T04:04:34;102464.63;;;-6.66;72.55
74915;BME280;63475;45.140;-75.616;2023-11-21T04:06:37;102466.28;;;-6.68;72.99
74915;BME280;63475;45.140;-75.616;2023-11-21T04:08:40;102462.78;;;-6.70;72.63
74915;BME280;63475;45.140;-75.616;2023-11-21T04:10:42;102466.13;;;-6.74;73.55
74915;BME280;63475;45.140;-75.616;2023-11-21T04:12:45;102458.38;;;-6.73;72.56
74915;BME280;63475;45.140;-75.616;2023-11-21T04:14:48;102457.47;;;-6.75;73.27
74915;BME280;63475;45.140;-75.616;2023-11-21T04:16:50;102455.75;;;-6.74;73.29
74915;BME280;63475;45.140;-75.616;2023-11-21T04:18:53;102449.63;;;-6.76;72.91
74915;BME280;63475;45.140;-75.616;2023-11-21T04:20:56;102446.00;;;-6.81;72.66
74915;BME280;63475;45.140;-75.616;2023-11-21T04:22:58;102461.72;;;-6.77;72.88
74915;BME280;63475;45.140;-75.616;2023-11-21T04:25:01;102455.56;;;-6.80;73.08
74915;BME280;63475;45.140;-75.616;2023-11-21T04:27:04;102461.69;;;-6.78;73.96
74915;BME280;63475;45.140;-75.616;2023-11-21T04:29:07;102452.09;;;-6.81;73.48
74915;BME280;63475;45.140;-75.616;2023-11-21T04:31:09;102459.97;;;-6.78;73.53
74915;BME280;63475;45.140;-75.616;2023-11-21T04:33:12;102457.31;;;-6.79;73.53
74915;BME280;63475;45.140;-75.616;2023-11-21T04:35:14;102459.09;;;-6.78;74.30
74915;BME280;63475;45.140;-75.616;2023-11-21T04:37:17;102448.63;;;-6.81;73.63
74915;BME280;63475;45.140;-75.616;2023-11-21T04:39:20;102447.78;;;-6.80;73.37
74915;BME280;63475;45.140;-75.616;2023-11-21T04:41:22;102446.91;;;-6.81;74.15
74915;BME280;63475;45.140;-75.616;2023-11-21T04:43:25;102437.22;;;-6.86;73.49
74915;BME280;63475;45.140;-75.616;2023-11-21T04:45:27;102437.22;;;-6.86;73.32
74915;BME280;63475;45.140;-75.616;2023-11-21T04:47:30;102440.78;;;-6.83;73.57
74915;BME280;63475;45.140;-75.616;2023-11-21T04:49:33;102441.66;;;-6.82;74.36
74915;BME280;63475;45.140;-75.616;2023-11-21T04:51:36;102441.66;;;-6.82;73.33
74915;BME280;63475;45.140;-75.616;2023-11-21T04:53:39;102439.81;;;-6.86;72.99
74915;BME280;63475;45.140;-75.616;2023-11-21T04:55:41;102446.81;;;-6.84;73.55
74915;BME280;63475;45.140;-75.616;2023-11-21T04:57:44;102439.81;;;-6.86;72.84
74915;BME280;63475;45.140;-75.616;2023-11-21T04:59:48;102446.66;;;-6.88;72.78
74915;BME280;63475;45.140;-75.616;2023-11-21T05:01:52;102437.06;;;-6.91;72.83
74915;BME280;63475;45.140;-75.616;2023-11-21T05:03:54;102440.47;;;-6.93;72.71
74915;BME280;63475;45.140;-75.616;2023-11-21T05:05:59;102439.56;;;-6.95;73.71
74915;BME280;63475;45.140;-75.616;2023-11-21T05:08:02;102440.34;;;-6.98;73.41
74915;BME280;63475;45.140;-75.616;2023-11-21T05:10:07;102447.97;;;-7.03;73.73
74915;BME280;63475;45.140;-75.616;2023-11-21T05:12:17;102442.78;;;-7.03;73.32
74915;BME280;63475;45.140;-75.616;2023-11-21T05:14:19;102452.31;;;-7.02;73.53
74915;BME280;63475;45.140;-75.616;2023-11-21T05:16:22;102445.31;;;-7.04;73.56
74915;BME280;63475;45.140;-75.616;2023-11-21T05:18:25;102437.41;;;-7.09;73.55
74915;BME280;63475;45.140;-75.616;2023-11-21T05:20:32;102430.50;;;-7.08;72.84
74915;BME280;63475;45.140;-75.616;2023-11-21T05:22:35;102421.00;;;-7.08;73.88
74915;BME280;63475;45.140;-75.616;2023-11-21T05:24:38;102414.03;;;-7.10;74.29
74915;BME280;63475;45.140;-75.616;2023-11-21T05:26:43;102413.97;;;-7.12;73.80
74915;BME280;63475;45.140;-75.616;2023-11-21T05:28:46;102418.22;;;-7.14;73.93
74915;BME280;63475;45.140;-75.616;2023-11-21T05:30:50;102421.69;;;-7.13;73.89
74915;BME280;63475;45.140;-75.616;2023-11-21T05:33:08;102431.25;;;-7.12;73.71
74915;BME280;63475;45.140;-75.616;2023-11-21T05:35:10;102420.81;;;-7.14;73.30
74915;BME280;63475;45.140;-75.616;2023-11-21T05:37:19;102416.47;;;-7.15;73.62
74915;BME280;63475;45.140;-75.616;2023-11-21T05:39:21;102418.22;;;-7.14;73.05
74915;BME280;63475;45.140;-75.616;2023-11-21T05:41:24;102426.00;;;-7.15;73.19
74915;BME280;63475;45.140;-75.616;2023-11-21T05:43:27;102431.19;;;-7.15;72.95
74915;BME280;63475;45.140;-75.616;2023-11-21T05:45:32;102437.13;;;-7.18;72.55
74915;BME280;63475;45.140;-75.616;2023-11-21T05:47:36;102445.75;;;-7.19;73.03
74915;BME280;63475;45.140;-75.616;2023-11-21T05:49:38;102452.69;;;-7.18;73.54
74915;BME280;63475;45.140;-75.616;2023-11-21T05:51:41;102476.97;;;-7.16;74.80
74915;BME280;63475;45.140;-75.616;2023-11-21T05:53:44;102483.03;;;-7.15;74.67
74915;BME280;63475;45.140;-75.616;2023-11-21T05:55:46;102478.69;;;-7.15;74.34
74915;BME280;63475;45.140;-75.616;2023-11-21T05:57:50;102470.00;;;-7.17;73.56
74915;BME280;63475;45.140;-75.616;2023-11-21T05:59:52;102457.88;;;-7.18;74.13
74915;BME280;63475;45.140;-75.616;2023-11-21T06:01:55;102451.03;;;-7.16;73.58
74915;BME280;63475;45.140;-75.616;2023-11-21T06:03:57;102458.06;;;-7.12;74.02
74915;BME280;63475;45.140;-75.616;2023-11-21T06:06:01;102473.59;;;-7.12;73.73
74915;BME280;63475;45.140;-75.616;2023-11-21T06:08:03;102480.44;;;-7.14;73.69
74915;BME280;63475;45.140;-75.616;2023-11-21T06:10:07;102482.16;;;-7.16;74.90
74915;BME280;63475;45.140;-75.616;2023-11-21T06:12:14;102498.59;;;-7.14;74.08
74915;BME280;63475;45.140;-75.616;2023-11-21T06:14:18;102502.97;;;-7.13;73.88
74915;BME280;63475;45.140;-75.616;2023-11-21T06:16:20;102502.97;;;-7.13;73.65
74915;BME280;63475;45.140;-75.616;2023-11-21T06:18:23;102498.59;;;-7.14;73.82
74915;BME280;63475;45.140;-75.616;2023-11-21T06:20:26;102512.44;;;-7.13;74.25
74915;BME280;63475;45.140;-75.616;2023-11-21T06:22:30;102506.44;;;-7.12;74.64
74915;BME280;63475;45.140;-75.616;2023-11-21T06:24:33;102507.38;;;-7.10;73.80
74915;BME280;63475;45.140;-75.616;2023-11-21T06:26:35;102505.66;;;-7.10;73.96
74915;BME280;63475;45.140;-75.616;2023-11-21T06:28:38;102502.97;;;-7.13;73.64
74915;BME280;63475;45.140;-75.616;2023-11-21T06:30:40;102515.84;;;-7.16;73.63
74915;BME280;63475;45.140;-75.616;2023-11-21T06:32:44;102518.44;;;-7.16;73.65
74915;BME280;63475;45.140;-75.616;2023-11-21T06:34:49;102516.63;;;-7.18;74.10
74915;BME280;63475;45.140;-75.616;2023-11-21T06:36:51;102514.78;;;-7.22;74.03
74915;BME280;63475;45.140;-75.616;2023-11-21T06:38:54;102517.41;;;-7.21;74.07
74915;BME280;63475;45.140;-75.616;2023-11-21T06:40:57;102517.31;;;-7.24;74.29
74915;BME280;63475;45.140;-75.616;2023-11-21T06:43:00;102519.03;;;-7.24;73.92
74915;BME280;63475;45.140;-75.616;2023-11-21T06:45:03;102511.19;;;-7.26;74.02
74915;BME280;63475;45.140;-75.616;2023-11-21T06:47:06;102505.06;;;-7.28;73.89
74915;BME280;63475;45.140;-75.616;2023-11-21T06:49:09;102503.25;;;-7.30;74.42
74915;BME280;63475;45.140;-75.616;2023-11-21T06:51:11;102502.28;;;-7.34;74.46
74915;BME280;63475;45.140;-75.616;2023-11-21T06:53:15;102505.78;;;-7.32;73.95
74915;BME280;63475;45.140;-75.616;2023-11-21T06:55:17;102498.03;;;-7.32;74.82
74915;BME280;63475;45.140;-75.616;2023-11-21T06:57:20;102481.53;;;-7.34;74.48
74915;BME280;63475;45.140;-75.616;2023-11-21T06:59:22;102472.00;;;-7.35;74.22
74915;BME280;63475;45.140;-75.616;2023-11-21T07:01:25;102475.53;;;-7.33;74.67
74915;BME280;63475;45.140;-75.616;2023-11-21T07:03:28;102485.84;;;-7.35;74.48
74915;BME280;63475;45.140;-75.616;2023-11-21T07:05:31;102492.72;;;-7.35;74.36
74915;BME280;63475;45.140;-75.616;2023-11-21T07:07:34;102491.03;;;-7.35;74.25
74915;BME280;63475;45.140;-75.616;2023-11-21T07:09:38;102480.59;;;-7.36;74.43
74915;BME280;63475;45.140;-75.616;2023-11-21T07:11:41;102482.31;;;-7.37;75.10
74915;BME280;63475;45.140;-75.616;2023-11-21T07:13:44;102484.91;;;-7.37;74.57
74915;BME280;63475;45.140;-75.616;2023-11-21T07:15:49;102484.75;;;-7.43;74.16
74915;BME280;63475;45.140;-75.616;2023-11-21T07:17:51;102481.41;;;-7.40;74.49
74915;BME280;63475;45.140;-75.616;2023-11-21T07:19:56;102471.88;;;-7.41;74.74
74915;BME280;63475;45.140;-75.616;2023-11-21T07:21:58;102455.47;;;-7.40;74.82
74915;BME280;63475;45.140;-75.616;2023-11-21T07:24:02;102446.00;;;-7.40;74.51
74915;BME280;63475;45.140;-75.616;2023-11-21T07:26:05;102447.75;;;-7.39;75.55
74915;BME280;63475;45.140;-75.616;2023-11-21T07:28:11;102458.03;;;-7.42;74.93
74915;BME280;63475;45.140;-75.616;2023-11-21T07:30:14;102458.03;;;-7.42;75.04
74915;BME280;63475;45.140;-75.616;2023-11-21T07:32:16;102451.06;;;-7.43;74.69
74915;BME280;63475;45.140;-75.616;2023-11-21T07:34:20;102447.50;;;-7.46;74.89
74915;BME280;63475;45.140;-75.616;2023-11-21T07:36:23;102454.50;;;-7.44;74.59
74915;BME280;63475;45.140;-75.616;2023-11-21T07:38:26;102449.09;;;-7.50;74.61
74915;BME280;63475;45.140;-75.616;2023-11-21T07:40:30;102439.53;;;-7.52;74.95
74915;BME280;63475;45.140;-75.616;2023-11-21T07:42:33;102443.00;;;-7.52;74.88
74915;BME280;63475;45.140;-75.616;2023-11-21T07:44:35;102438.63;;;-7.53;74.90
74915;BME280;63475;45.140;-75.616;2023-11-21T07:46:38;102438.69;;;-7.51;75.33
74915;BME280;63475;45.140;-75.616;2023-11-21T07:48:42;102441.22;;;-7.53;75.32
74915;BME280;63475;45.140;-75.616;2023-11-21T07:50:45;102439.47;;;-7.54;75.28
74915;BME280;63475;45.140;-75.616;2023-11-21T07:52:49;102442.84;;;-7.56;74.39
74915;BME280;63475;45.140;-75.616;2023-11-21T07:54:51;102450.56;;;-7.58;74.43
74915;BME280;63475;45.140;-75.616;2023-11-21T07:56:54;102439.25;;;-7.61;74.41
74915;BME280;63475;45.140;-75.616;2023-11-21T07:58:57;102447.19;;;-7.55;74.23
74915;BME280;63475;45.140;-75.616;2023-11-21T08:01:03;102438.47;;;-7.57;74.31
74915;BME280;63475;45.140;-75.616;2023-11-21T08:03:05;102441.91;;;-7.58;74.91
74915;BME280;63475;45.140;-75.616;2023-11-21T08:05:09;102445.47;;;-7.55;75.27
74915;BME280;63475;45.140;-75.616;2023-11-21T08:07:25;102452.44;;;-7.54;75.21
74915;BME280;63475;45.140;-75.616;2023-11-21T08:09:28;102447.13;;;-7.57;75.32
74915;BME280;63475;45.140;-75.616;2023-11-21T08:11:30;102452.38;;;-7.55;75.39
74915;BME280;63475;45.140;-75.616;2023-11-21T08:13:35;102442.84;;;-7.56;75.57
74915;BME280;63475;45.140;-75.616;2023-11-21T08:15:37;102441.13;;;-7.56;75.42
74915;BME280;63475;45.140;-75.616;2023-11-21T08:17:40;102435.91;;;-7.57;75.38
74915;BME280;63475;45.140;-75.616;2023-11-21T08:19:43;102428.06;;;-7.60;75.04
74915;BME280;63475;45.140;-75.616;2023-11-21T08:21:45;102424.59;;;-7.61;75.78
74915;BME280;63475;45.140;-75.616;2023-11-21T08:23:48;102420.28;;;-7.60;74.68
74915;BME280;63475;45.140;-75.616;2023-11-21T08:25:56;102414.16;;;-7.62;75.40
74915;BME280;63475;45.140;-75.616;2023-11-21T08:27:58;102400.28;;;-7.64;74.70
74915;BME280;63475;45.140;-75.616;2023-11-21T08:30:04;102402.16;;;-7.59;75.28
74915;BME280;63475;45.140;-75.616;2023-11-21T08:32:07;102393.50;;;-7.59;75.94
74915;BME280;63475;45.140;-75.616;2023-11-21T08:34:10;102398.84;;;-7.55;77.27
74915;BME280;63475;45.140;-75.616;2023-11-21T08:36:12;102398.94;;;-7.52;78.29
74915;BME280;63475;45.140;-75.616;2023-11-21T08:38:15;102410.38;;;-7.45;78.11
74915;BME280;63475;45.140;-75.616;2023-11-21T08:40:17;102407.75;;;-7.47;77.50
74915;BME280;63475;45.140;-75.616;2023-11-21T08:42:20;102401.69;;;-7.47;77.56
74915;BME280;63475;45.140;-75.616;2023-11-21T08:44:23;102412.06;;;-7.47;77.58
74915;BME280;63475;45.140;-75.616;2023-11-21T08:46:25;102415.53;;;-7.47;76.84
74915;BME280;63475;45.140;-75.616;2023-11-21T08:48:28;102412.94;;;-7.47;77.32
74915;BME280;63475;45.140;-75.616;2023-11-21T08:50:32;102409.50;;;-7.46;77.05
74915;BME280;63475;45.140;-75.616;2023-11-21T08:52:34;102390.44;;;-7.48;76.74
74915;BME280;63475;45.140;-75.616;2023-11-21T08:54:39;102406.03;;;-7.46;76.25
74915;BME280;63475;45.140;-75.616;2023-11-21T08:56:43;102395.66;;;-7.46;75.87
74915;BME280;63475;45.140;-75.616;2023-11-21T08:58:46;102385.34;;;-7.45;76.00
74915;BME280;63475;45.140;-75.616;2023-11-21T09:00:52;102369.81;;;-7.45;75.79
74915;BME280;63475;45.140;-75.616;2023-11-21T09:02:55;102370.69;;;-7.44;75.10
74915;BME280;63475;45.140;-75.616;2023-11-21T09:04:57;102372.34;;;-7.46;74.86
74915;BME280;63475;45.140;-75.616;2023-11-21T09:07:01;102389.66;;;-7.45;75.30
74915;BME280;63475;45.140;-75.616;2023-11-21T09:09:03;102384.44;;;-7.47;75.59
74915;BME280;63475;45.140;-75.616;2023-11-21T09:11:08;102377.53;;;-7.46;76.45
74915;BME280;63475;45.140;-75.616;2023-11-21T09:13:10;102386.13;;;-7.47;75.21
74915;BME280;63475;45.140;-75.616;2023-11-21T09:15:13;102394.75;;;-7.48;75.40
74915;BME280;63475;45.140;-75.616;2023-11-21T09:17:17;102387.69;;;-7.52;74.29
74915;BME280;63475;45.140;-75.616;2023-11-21T09:19:19;102382.63;;;-7.49;75.09
74915;BME280;63475;45.140;-75.616;2023-11-21T09:21:23;102368.00;;;-7.47;75.86
74915;BME280;63475;45.140;-75.616;2023-11-21T09:23:26;102367.22;;;-7.45;74.89
74915;BME280;63475;45.140;-75.616;2023-11-21T09:25:29;102355.03;;;-7.47;75.15
74915;BME280;63475;45.140;-75.616;2023-11-21T09:27:32;102375.78;;;-7.47;74.52
74915;BME280;63475;45.140;-75.616;2023-11-21T09:29:34;102389.50;;;-7.50;74.82
74915;BME280;63475;45.140;-75.616;2023-11-21T09:31:37;102400.69;;;-7.51;74.94
74915;BME280;63475;45.140;-75.616;2023-11-21T09:33:41;102390.44;;;-7.48;76.54
74915;BME280;63475;45.140;-75.616;2023-11-21T09:35:43;102378.25;;;-7.50;75.92
74915;BME280;63475;45.140;-75.616;2023-11-21T09:37:46;102369.66;;;-7.49;75.67
74915;BME280;63475;45.140;-75.616;2023-11-21T09:39:51;102357.59;;;-7.49;75.73
74915;BME280;63475;45.140;-75.616;2023-11-21T09:41:59;102346.44;;;-7.46;75.37
74915;BME280;63475;45.140;-75.616;2023-11-21T09:44:09;102342.13;;;-7.46;75.15
74915;BME280;63475;45.140;-75.616;2023-11-21T09:46:16;102333.28;;;-7.52;75.08
74915;BME280;63475;45.140;-75.616;2023-11-21T09:48:24;102332.56;;;-7.48;74.97
74915;BME280;63475;45.140;-75.616;2023-11-21T09:50:28;102320.38;;;-7.51;74.51
74915;BME280;63475;45.140;-75.616;2023-11-21T09:52:32;102325.50;;;-7.52;74.97
74915;BME280;63475;45.140;-75.616;2023-11-21T09:54:37;102333.34;;;-7.51;74.96
74915;BME280;63475;45.140;-75.616;2023-11-21T09:56:40;102329.81;;;-7.53;75.54
74915;BME280;63475;45.140;-75.616;2023-11-21T09:58:43;102318.63;;;-7.52;74.97
74915;BME280;63475;45.140;-75.616;2023-11-21T10:00:48;102316.91;;;-7.51;75.91
74915;BME280;63475;45.140;-75.616;2023-11-21T10:02:52;102312.59;;;-7.51;75.50
74915;BME280;63475;45.140;-75.616;2023-11-21T10:04:55;102309.22;;;-7.48;75.81
74915;BME280;63475;45.140;-75.616;2023-11-21T10:06:58;102315.28;;;-7.48;75.48
74915;BME280;63475;45.140;-75.616;2023-11-21T10:09:01;102308.41;;;-7.47;76.56
74915;BME280;63475;45.140;-75.616;2023-11-21T10:11:07;102291.19;;;-7.45;77.04
74915;BME280;63475;45.140;-75.616;2023-11-21T10:13:14;102287.75;;;-7.44;75.93
74915;BME280;63475;45.140;-75.616;2023-11-21T10:15:23;102287.66;;;-7.47;75.99
74915;BME280;63475;45.140;-75.616;2023-11-21T10:17:30;102286.09;;;-7.42;76.53
74915;BME280;63475;45.140;-75.616;2023-11-21T10:19:39;102279.25;;;-7.40;76.27
74915;BME280;63475;45.140;-75.616;2023-11-21T10:21:41;102281.00;;;-7.39;75.65
74915;BME280;63475;45.140;-75.616;2023-11-21T10:23:44;102281.88;;;-7.37;76.42
74915;BME280;63475;45.140;-75.616;2023-11-21T10:25:49;102271.47;;;-7.40;77.04
74915;BME280;63475;45.140;-75.616;2023-11-21T10:27:59;102269.78;;;-7.37;76.96